sensor_id;sensor_type;location;lat;lon;timestamp;temperature;humidity
71237;DHT22;58984;51.960;5.582;2022-11-15T00:00:51;14.90;51.30
71237;DHT22;58984;51.960;5.582;2022-11-15T00:03:19;14.90;51.40
71237;DHT22;58984;51.960;5.582;2022-11-15T00:05:45;14.90;51.40
71237;DHT22;58984;51.960;5.582;2022-11-15T00:08:11;14.90;51.40
71237;DHT22;58984;51.960;5.582;2022-11-15T00:10:37;14.90;51.40
71237;DHT22;58984;51.960;5.582;2022-11-15T00:13:12;14.90;51.50
71237;DHT22;58984;51.960;5.582;2022-11-15T00:15:38;14.90;51.60
71237;DHT22;58984;51.960;5.582;2022-11-15T00:18:05;14.90;51.60
71237;DHT22;58984;51.960;5.582;2022-11-15T00:20:33;14.90;51.60
71237;DHT22;58984;51.960;5.582;2022-11-15T00:22:59;14.90;51.50
71237;DHT22;58984;51.960;5.582;2022-11-15T00:25:26;14.90;51.60
71237;DHT22;58984;51.960;5.582;2022-11-15T00:27:55;14.90;51.80
71237;DHT22;58984;51.960;5.582;2022-11-15T00:30:22;14.90;51.70
71237;DHT22;58984;51.960;5.582;2022-11-15T00:32:47;14.90;51.70
71237;DHT22;58984;51.960;5.582;2022-11-15T00:35:13;14.90;51.90
71237;DHT22;58984;51.960;5.582;2022-11-15T00:37:39;14.90;51.90
71237;DHT22;58984;51.960;5.582;2022-11-15T00:40:05;14.90;51.90
71237;DHT22;58984;51.960;5.582;2022-11-15T00:42:30;14.90;51.90
71237;DHT22;58984;51.960;5.582;2022-11-15T00:44:56;14.90;51.90
71237;DHT22;58984;51.960;5.582;2022-11-15T00:47:21;14.90;52.00
71237;DHT22;58984;51.960;5.582;2022-11-15T00:49:47;14.90;52.10
71237;DHT22;58984;51.960;5.582;2022-11-15T00:52:12;14.90;52.00
71237;DHT22;58984;51.960;5.582;2022-11-15T00:54:38;14.90;52.10
71237;DHT22;58984;51.960;5.582;2022-11-15T00:57:04;14.90;52.10
71237;DHT22;58984;51.960;5.582;2022-11-15T00:59:30;14.90;52.90
71237;DHT22;58984;51.960;5.582;2022-11-15T01:01:55;14.90;52.20
71237;DHT22;58984;51.960;5.582;2022-11-15T01:04:21;14.90;52.20
71237;DHT22;58984;51.960;5.582;2022-11-15T01:06:46;14.90;52.30
71237;DHT22;58984;51.960;5.582;2022-11-15T01:09:12;14.90;52.30
71237;DHT22;58984;51.960;5.582;2022-11-15T01:11:38;15.00;52.50
71237;DHT22;58984;51.960;5.582;2022-11-15T01:14:04;14.90;52.40
71237;DHT22;58984;51.960;5.582;2022-11-15T01:16:30;14.90;52.50
71237;DHT22;58984;51.960;5.582;2022-11-15T01:18:55;14.90;52.30
71237;DHT22;58984;51.960;5.582;2022-11-15T01:21:21;14.90;52.40
71237;DHT22;58984;51.960;5.582;2022-11-15T01:23:46;14.90;52.50
71237;DHT22;58984;51.960;5.582;2022-11-15T01:26:13;14.90;52.50
71237;DHT22;58984;51.960;5.582;2022-11-15T01:28:41;14.90;52.50
71237;DHT22;58984;51.960;5.582;2022-11-15T01:31:15;14.90;52.60
71237;DHT22;58984;51.960;5.582;2022-11-15T01:33:42;14.90;52.60
71237;DHT22;58984;51.960;5.582;2022-11-15T01:36:11;14.90;52.60
71237;DHT22;58984;51.960;5.582;2022-11-15T01:38:37;14.90;52.70
71237;DHT22;58984;51.960;5.582;2022-11-15T01:41:03;14.90;52.80
71237;DHT22;58984;51.960;5.582;2022-11-15T01:43:34;14.90;52.70
71237;DHT22;58984;51.960;5.582;2022-11-15T01:46:22;14.90;52.90
71237;DHT22;58984;51.960;5.582;2022-11-15T01:48:50;14.90;52.90
71237;DHT22;58984;51.960;5.582;2022-11-15T01:51:17;15.00;53.10
71237;DHT22;58984;51.960;5.582;2022-11-15T01:53:47;14.90;53.00
71237;DHT22;58984;51.960;5.582;2022-11-15T01:56:18;14.90;53.10
71237;DHT22;58984;51.960;5.582;2022-11-15T01:58:45;14.90;53.10
71237;DHT22;58984;51.960;5.582;2022-11-15T02:01:13;15.00;53.10
71237;DHT22;58984;51.960;5.582;2022-11-15T02:03:54;14.90;53.10
71237;DHT22;58984;51.960;5.582;2022-11-15T02:06:22;14.90;53.10
71237;DHT22;58984;51.960;5.582;2022-11-15T02:08:49;14.90;53.00
71237;DHT22;58984;51.960;5.582;2022-11-15T02:11:15;15.00;53.10
71237;DHT22;58984;51.960;5.582;2022-11-15T02:13:41;14.90;53.10
71237;DHT22;58984;51.960;5.582;2022-11-15T02:16:34;15.00;53.10
71237;DHT22;58984;51.960;5.582;2022-11-15T02:30:38;15.00;53.30
71237;DHT22;58984;51.960;5.582;2022-11-15T02:36:15;14.90;53.60
71237;DHT22;58984;51.960;5.582;2022-11-15T02:38:48;15.00;53.50
71237;DHT22;58984;51.960;5.582;2022-11-15T02:41:37;15.00;53.60
71237;DHT22;58984;51.960;5.582;2022-11-15T02:44:19;14.90;53.80
71237;DHT22;58984;51.960;5.582;2022-11-15T02:49:37;15.00;53.90
71237;DHT22;58984;51.960;5.582;2022-11-15T02:52:03;15.00;53.80
71237;DHT22;58984;51.960;5.582;2022-11-15T02:54:31;15.00;53.80
71237;DHT22;58984;51.960;5.582;2022-11-15T02:57:15;15.00;53.90
71237;DHT22;58984;51.960;5.582;2022-11-15T03:04:57;15.00;53.90
71237;DHT22;58984;51.960;5.582;2022-11-15T03:07:32;15.00;53.90
71237;DHT22;58984;51.960;5.582;2022-11-15T03:10:15;15.10;53.90
71237;DHT22;58984;51.960;5.582;2022-11-15T03:15:21;15.20;54.00
71237;DHT22;58984;51.960;5.582;2022-11-15T03:17:55;15.10;53.90
71237;DHT22;58984;51.960;5.582;2022-11-15T03:20:25;15.20;54.70
71237;DHT22;58984;51.960;5.582;2022-11-15T03:22:54;15.10;54.00
71237;DHT22;58984;51.960;5.582;2022-11-15T03:25:24;15.10;54.00
71237;DHT22;58984;51.960;5.582;2022-11-15T03:27:53;15.10;53.90
71237;DHT22;58984;51.960;5.582;2022-11-15T03:30:20;15.10;54.00
71237;DHT22;58984;51.960;5.582;2022-11-15T03:32:55;15.10;54.30
71237;DHT22;58984;51.960;5.582;2022-11-15T03:35:27;15.10;54.30
71237;DHT22;58984;51.960;5.582;2022-11-15T03:38:23;15.20;54.20
71237;DHT22;58984;51.960;5.582;2022-11-15T03:41:00;15.10;54.30
71237;DHT22;58984;51.960;5.582;2022-11-15T03:46:33;15.10;54.50
71237;DHT22;58984;51.960;5.582;2022-11-15T03:49:22;15.30;54.40
71237;DHT22;58984;51.960;5.582;2022-11-15T03:51:50;15.20;54.60
71237;DHT22;58984;51.960;5.582;2022-11-15T03:54:15;15.30;54.70
71237;DHT22;58984;51.960;5.582;2022-11-15T03:56:41;15.20;55.00
71237;DHT22;58984;51.960;5.582;2022-11-15T03:59:07;15.20;55.20
71237;DHT22;58984;51.960;5.582;2022-11-15T04:01:32;15.20;55.20
71237;DHT22;58984;51.960;5.582;2022-11-15T04:03:58;15.20;55.20
71237;DHT22;58984;51.960;5.582;2022-11-15T04:06:23;15.20;55.10
71237;DHT22;58984;51.960;5.582;2022-11-15T04:08:49;15.30;55.10
71237;DHT22;58984;51.960;5.582;2022-11-15T04:11:14;15.20;55.00
71237;DHT22;58984;51.960;5.582;2022-11-15T04:13:40;15.30;55.10
71237;DHT22;58984;51.960;5.582;2022-11-15T04:16:06;15.30;55.10
71237;DHT22;58984;51.960;5.582;2022-11-15T04:18:31;15.30;55.20
71237;DHT22;58984;51.960;5.582;2022-11-15T04:20:57;15.30;55.20
71237;DHT22;58984;51.960;5.582;2022-11-15T04:23:41;15.30;55.20
71237;DHT22;58984;51.960;5.582;2022-11-15T04:26:25;15.30;55.20
71237;DHT22;58984;51.960;5.582;2022-11-15T04:28:50;15.30;55.30
71237;DHT22;58984;51.960;5.582;2022-11-15T04:31:34;15.30;55.40
71237;DHT22;58984;51.960;5.582;2022-11-15T04:34:00;15.30;55.40
71237;DHT22;58984;51.960;5.582;2022-11-15T04:36:26;15.30;55.50
71237;DHT22;58984;51.960;5.582;2022-11-15T04:39:10;15.40;55.70
71237;DHT22;58984;51.960;5.582;2022-11-15T04:41:35;15.40;55.60
71237;DHT22;58984;51.960;5.582;2022-11-15T04:44:01;15.40;55.60
71237;DHT22;58984;51.960;5.582;2022-11-15T04:46:27;15.40;55.60
71237;DHT22;58984;51.960;5.582;2022-11-15T04:48:53;15.40;55.60
71237;DHT22;58984;51.960;5.582;2022-11-15T04:51:19;15.40;55.70
71237;DHT22;58984;51.960;5.582;2022-11-15T04:53:45;15.40;55.70
71237;DHT22;58984;51.960;5.582;2022-11-15T04:56:11;15.40;55.90
71237;DHT22;58984;51.960;5.582;2022-11-15T04:58:37;15.40;56.10
71237;DHT22;58984;51.960;5.582;2022-11-15T05:01:13;15.40;56.10
71237;DHT22;58984;51.960;5.582;2022-11-15T05:03:40;15.40;56.10
71237;DHT22;58984;51.960;5.582;2022-11-15T05:06:25;15.40;56.10
71237;DHT22;58984;51.960;5.582;2022-11-15T05:08:51;15.40;56.20
71237;DHT22;58984;51.960;5.582;2022-11-15T05:11:16;15.50;56.30
71237;DHT22;58984;51.960;5.582;2022-11-15T05:13:42;15.50;56.40
71237;DHT22;58984;51.960;5.582;2022-11-15T05:16:08;15.50;56.60
71237;DHT22;58984;51.960;5.582;2022-11-15T05:18:34;15.50;56.60
71237;DHT22;58984;51.960;5.582;2022-11-15T05:21:04;15.50;56.60
71237;DHT22;58984;51.960;5.582;2022-11-15T05:23:30;15.50;56.60
71237;DHT22;58984;51.960;5.582;2022-11-15T05:25:59;15.50;56.40
71237;DHT22;58984;51.960;5.582;2022-11-15T05:28:25;15.50;56.50
71237;DHT22;58984;51.960;5.582;2022-11-15T05:30:50;15.60;55.80
71237;DHT22;58984;51.960;5.582;2022-11-15T05:33:16;15.60;56.30
71237;DHT22;58984;51.960;5.582;2022-11-15T05:35:46;15.60;56.50
71237;DHT22;58984;51.960;5.582;2022-11-15T05:38:14;15.50;56.60
71237;DHT22;58984;51.960;5.582;2022-11-15T05:40:39;15.60;56.70
71237;DHT22;58984;51.960;5.582;2022-11-15T05:43:05;15.60;56.70
71237;DHT22;58984;51.960;5.582;2022-11-15T05:45:32;15.60;56.70
71237;DHT22;58984;51.960;5.582;2022-11-15T05:48:00;15.60;57.00
71237;DHT22;58984;51.960;5.582;2022-11-15T05:50:29;15.60;57.20
71237;DHT22;58984;51.960;5.582;2022-11-15T05:52:55;15.60;57.00
71237;DHT22;58984;51.960;5.582;2022-11-15T05:55:21;15.60;57.40
71237;DHT22;58984;51.960;5.582;2022-11-15T05:57:46;15.60;57.40
71237;DHT22;58984;51.960;5.582;2022-11-15T06:00:12;15.60;57.40
71237;DHT22;58984;51.960;5.582;2022-11-15T06:02:38;15.60;57.50
71237;DHT22;58984;51.960;5.582;2022-11-15T06:05:04;15.70;57.70
71237;DHT22;58984;51.960;5.582;2022-11-15T06:07:30;15.70;57.50
71237;DHT22;58984;51.960;5.582;2022-11-15T06:09:56;15.70;57.80
71237;DHT22;58984;51.960;5.582;2022-11-15T06:12:21;15.70;58.10
71237;DHT22;58984;51.960;5.582;2022-11-15T06:14:47;15.70;57.90
71237;DHT22;58984;51.960;5.582;2022-11-15T06:17:13;15.70;57.80
71237;DHT22;58984;51.960;5.582;2022-11-15T06:19:38;15.70;57.80
71237;DHT22;58984;51.960;5.582;2022-11-15T06:22:04;15.70;57.70
71237;DHT22;58984;51.960;5.582;2022-11-15T06:24:29;15.70;57.90
71237;DHT22;58984;51.960;5.582;2022-11-15T06:26:55;15.70;57.80
71237;DHT22;58984;51.960;5.582;2022-11-15T06:29:21;15.80;57.60
71237;DHT22;58984;51.960;5.582;2022-11-15T06:31:46;15.80;57.70
71237;DHT22;58984;51.960;5.582;2022-11-15T06:34:12;15.80;57.50
71237;DHT22;58984;51.960;5.582;2022-11-15T06:36:37;15.80;57.50
71237;DHT22;58984;51.960;5.582;2022-11-15T06:39:04;15.80;57.20
71237;DHT22;58984;51.960;5.582;2022-11-15T06:41:29;15.80;57.10
71237;DHT22;58984;51.960;5.582;2022-11-15T06:43:56;15.80;57.30
71237;DHT22;58984;51.960;5.582;2022-11-15T06:46:22;15.80;57.30
71237;DHT22;58984;51.960;5.582;2022-11-15T06:48:50;15.80;57.30
71237;DHT22;58984;51.960;5.582;2022-11-15T06:51:16;15.80;57.30
71237;DHT22;58984;51.960;5.582;2022-11-15T06:53:42;15.80;57.10
71237;DHT22;58984;51.960;5.582;2022-11-15T06:56:08;15.80;57.40
71237;DHT22;58984;51.960;5.582;2022-11-15T06:58:35;15.80;57.30
71237;DHT22;58984;51.960;5.582;2022-11-15T07:01:06;15.80;57.80
71237;DHT22;58984;51.960;5.582;2022-11-15T07:03:34;15.80;58.00
71237;DHT22;58984;51.960;5.582;2022-11-15T07:06:00;15.90;57.70
71237;DHT22;58984;51.960;5.582;2022-11-15T07:08:27;15.80;57.50
71237;DHT22;58984;51.960;5.582;2022-11-15T07:10:53;15.90;57.50
71237;DHT22;58984;51.960;5.582;2022-11-15T07:13:19;15.90;57.80
71237;DHT22;58984;51.960;5.582;2022-11-15T07:15:44;15.90;57.50
71237;DHT22;58984;51.960;5.582;2022-11-15T07:18:10;15.90;57.20
71237;DHT22;58984;51.960;5.582;2022-11-15T07:20:36;15.90;57.20
71237;DHT22;58984;51.960;5.582;2022-11-15T07:23:03;15.90;57.30
71237;DHT22;58984;51.960;5.582;2022-11-15T07:25:30;15.90;57.50
71237;DHT22;58984;51.960;5.582;2022-11-15T07:27:57;15.90;57.50
71237;DHT22;58984;51.960;5.582;2022-11-15T07:30:23;15.90;57.70
71237;DHT22;58984;51.960;5.582;2022-11-15T07:32:59;15.90;57.80
71237;DHT22;58984;51.960;5.582;2022-11-15T07:35:27;15.80;57.90
71237;DHT22;58984;51.960;5.582;2022-11-15T07:37:58;15.90;57.70
71237;DHT22;58984;51.960;5.582;2022-11-15T07:40:25;15.90;57.70
71237;DHT22;58984;51.960;5.582;2022-11-15T07:42:51;15.90;57.50
71237;DHT22;58984;51.960;5.582;2022-11-15T07:45:24;15.90;57.10
71237;DHT22;58984;51.960;5.582;2022-11-15T07:47:52;15.90;57.20
71237;DHT22;58984;51.960;5.582;2022-11-15T07:50:18;15.90;57.10
71237;DHT22;58984;51.960;5.582;2022-11-15T07:52:44;15.90;57.20
71237;DHT22;58984;51.960;5.582;2022-11-15T07:55:09;15.90;57.00
71237;DHT22;58984;51.960;5.582;2022-11-15T07:57:35;15.90;57.30
71237;DHT22;58984;51.960;5.582;2022-11-15T08:00:01;15.90;57.40
71237;DHT22;58984;51.960;5.582;2022-11-15T08:02:27;15.90;57.70
71237;DHT22;58984;51.960;5.582;2022-11-15T08:04:52;16.00;57.70
71237;DHT22;58984;51.960;5.582;2022-11-15T08:07:18;16.00;57.50
71237;DHT22;58984;51.960;5.582;2022-11-15T08:09:44;16.00;57.70
71237;DHT22;58984;51.960;5.582;2022-11-15T08:12:09;16.00;57.80
71237;DHT22;58984;51.960;5.582;2022-11-15T08:14:35;16.00;58.10
71237;DHT22;58984;51.960;5.582;2022-11-15T08:17:01;16.00;57.90
71237;DHT22;58984;51.960;5.582;2022-11-15T08:19:27;16.00;58.00
71237;DHT22;58984;51.960;5.582;2022-11-15T08:21:52;16.00;57.70
71237;DHT22;58984;51.960;5.582;2022-11-15T08:24:18;16.00;57.60
71237;DHT22;58984;51.960;5.582;2022-11-15T08:26:44;16.00;57.60
71237;DHT22;58984;51.960;5.582;2022-11-15T08:29:09;16.00;57.60
71237;DHT22;58984;51.960;5.582;2022-11-15T08:31:36;16.00;57.80
71237;DHT22;58984;51.960;5.582;2022-11-15T08:34:03;16.00;57.80
71237;DHT22;58984;51.960;5.582;2022-11-15T08:36:29;16.00;57.60
71237;DHT22;58984;51.960;5.582;2022-11-15T08:38:54;16.00;57.40
71237;DHT22;58984;51.960;5.582;2022-11-15T08:41:26;16.10;57.60
71237;DHT22;58984;51.960;5.582;2022-11-15T08:43:53;16.00;58.20
71237;DHT22;58984;51.960;5.582;2022-11-15T08:46:18;16.10;57.90
71237;DHT22;58984;51.960;5.582;2022-11-15T08:48:44;16.10;57.90
71237;DHT22;58984;51.960;5.582;2022-11-15T08:51:10;16.10;57.80
71237;DHT22;58984;51.960;5.582;2022-11-15T08:53:35;16.10;57.80
71237;DHT22;58984;51.960;5.582;2022-11-15T08:56:01;16.10;57.90
71237;DHT22;58984;51.960;5.582;2022-11-15T08:58:28;16.10;57.80
71237;DHT22;58984;51.960;5.582;2022-11-15T09:00:54;16.10;58.10
71237;DHT22;58984;51.960;5.582;2022-11-15T09:03:19;16.10;58.00
71237;DHT22;58984;51.960;5.582;2022-11-15T09:05:45;16.10;57.90
71237;DHT22;58984;51.960;5.582;2022-11-15T09:08:11;16.10;58.10
71237;DHT22;58984;51.960;5.582;2022-11-15T09:10:38;16.20;58.40
71237;DHT22;58984;51.960;5.582;2022-11-15T09:13:03;16.20;58.30
71237;DHT22;58984;51.960;5.582;2022-11-15T09:15:29;16.20;57.90
71237;DHT22;58984;51.960;5.582;2022-11-15T09:17:58;16.20;57.80
71237;DHT22;58984;51.960;5.582;2022-11-15T09:20:23;16.20;58.10
71237;DHT22;58984;51.960;5.582;2022-11-15T09:22:53;16.20;58.20
71237;DHT22;58984;51.960;5.582;2022-11-15T09:25:19;16.20;58.30
71237;DHT22;58984;51.960;5.582;2022-11-15T09:27:44;16.20;58.40
71237;DHT22;58984;51.960;5.582;2022-11-15T09:30:10;16.20;58.40
71237;DHT22;58984;51.960;5.582;2022-11-15T09:32:36;16.30;58.60
71237;DHT22;58984;51.960;5.582;2022-11-15T09:35:03;16.20;58.60
71237;DHT22;58984;51.960;5.582;2022-11-15T09:37:28;16.30;58.80
71237;DHT22;58984;51.960;5.582;2022-11-15T09:39:56;16.30;58.70
71237;DHT22;58984;51.960;5.582;2022-11-15T09:42:59;16.30;58.70
71237;DHT22;58984;51.960;5.582;2022-11-15T09:45:28;16.30;58.60
71237;DHT22;58984;51.960;5.582;2022-11-15T09:50:49;16.30;58.40
71237;DHT22;58984;51.960;5.582;2022-11-15T09:56:02;16.40;58.10
71237;DHT22;58984;51.960;5.582;2022-11-15T10:00:58;16.50;58.20
71237;DHT22;58984;51.960;5.582;2022-11-15T10:03:35;16.60;58.20
71237;DHT22;58984;51.960;5.582;2022-11-15T10:06:04;16.60;58.20
71237;DHT22;58984;51.960;5.582;2022-11-15T10:11:22;16.70;58.00
71237;DHT22;58984;51.960;5.582;2022-11-15T10:13:50;16.70;57.90
71237;DHT22;58984;51.960;5.582;2022-11-15T10:16:57;16.80;57.90
71237;DHT22;58984;51.960;5.582;2022-11-15T10:24:28;16.90;57.70
71237;DHT22;58984;51.960;5.582;2022-11-15T10:26:55;16.90;57.70
71237;DHT22;58984;51.960;5.582;2022-11-15T10:29:22;16.90;57.80
71237;DHT22;58984;51.960;5.582;2022-11-15T10:31:49;16.90;57.70
71237;DHT22;58984;51.960;5.582;2022-11-15T10:34:20;16.90;57.60
71237;DHT22;58984;51.960;5.582;2022-11-15T10:36:56;17.00;57.70
71237;DHT22;58984;51.960;5.582;2022-11-15T10:39:22;17.10;57.60
71237;DHT22;58984;51.960;5.582;2022-11-15T10:41:48;17.10;57.50
71237;DHT22;58984;51.960;5.582;2022-11-15T10:44:18;17.10;57.50
71237;DHT22;58984;51.960;5.582;2022-11-15T10:49:22;17.20;57.50
71237;DHT22;58984;51.960;5.582;2022-11-15T10:51:54;17.20;57.30
71237;DHT22;58984;51.960;5.582;2022-11-15T10:54:33;17.30;57.30
71237;DHT22;58984;51.960;5.582;2022-11-15T10:57:11;17.30;57.30
71237;DHT22;58984;51.960;5.582;2022-11-15T10:59:37;17.40;57.20
71237;DHT22;58984;51.960;5.582;2022-11-15T11:02:27;17.50;57.10
71237;DHT22;58984;51.960;5.582;2022-11-15T11:04:54;17.40;57.20
71237;DHT22;58984;51.960;5.582;2022-11-15T11:07:29;17.60;57.00
71237;DHT22;58984;51.960;5.582;2022-11-15T11:09:59;17.60;57.00
71237;DHT22;58984;51.960;5.582;2022-11-15T11:12:30;17.60;56.90
71237;DHT22;58984;51.960;5.582;2022-11-15T11:14:58;17.70;56.90
71237;DHT22;58984;51.960;5.582;2022-11-15T11:18:05;17.70;56.80
71237;DHT22;58984;51.960;5.582;2022-11-15T11:20:41;17.70;56.90
71237;DHT22;58984;51.960;5.582;2022-11-15T11:26:44;17.90;56.80
71237;DHT22;58984;51.960;5.582;2022-11-15T11:28:53;17.80;56.70
71237;DHT22;58984;51.960;5.582;2022-11-15T11:32:03;17.90;56.30
71237;DHT22;58984;51.960;5.582;2022-11-15T11:38:09;18.00;56.30
71237;DHT22;58984;51.960;5.582;2022-11-15T11:51:12;18.30;56.00
71237;DHT22;58984;51.960;5.582;2022-11-15T11:53:56;18.40;56.10
71237;DHT22;58984;51.960;5.582;2022-11-15T11:56:27;18.50;56.10
71237;DHT22;58984;51.960;5.582;2022-11-15T11:58:57;18.50;55.90
71237;DHT22;58984;51.960;5.582;2022-11-15T12:01:36;18.60;55.80
71237;DHT22;58984;51.960;5.582;2022-11-15T12:04:16;18.70;55.70
71237;DHT22;58984;51.960;5.582;2022-11-15T12:06:48;18.70;55.70
71237;DHT22;58984;51.960;5.582;2022-11-15T12:09:22;18.80;55.70
71237;DHT22;58984;51.960;5.582;2022-11-15T12:14:40;18.80;55.40
71237;DHT22;58984;51.960;5.582;2022-11-15T12:17:10;18.80;55.10
71237;DHT22;58984;51.960;5.582;2022-11-15T12:19:37;18.90;55.10
71237;DHT22;58984;51.960;5.582;2022-11-15T12:25:04;18.90;54.90
71237;DHT22;58984;51.960;5.582;2022-11-15T12:28:03;18.90;54.90
71237;DHT22;58984;51.960;5.582;2022-11-15T12:31:15;19.00;55.00
71237;DHT22;58984;51.960;5.582;2022-11-15T12:33:46;19.00;55.00
71237;DHT22;58984;51.960;5.582;2022-11-15T12:40:03;19.00;54.60
71237;DHT22;58984;51.960;5.582;2022-11-15T12:47:23;19.20;54.60
71237;DHT22;58984;51.960;5.582;2022-11-15T12:49:49;19.10;54.60
71237;DHT22;58984;51.960;5.582;2022-11-15T12:52:15;19.20;54.50
71237;DHT22;58984;51.960;5.582;2022-11-15T13:02:42;19.20;54.30
71237;DHT22;58984;51.960;5.582;2022-11-15T13:12:56;19.30;54.20
71237;DHT22;58984;51.960;5.582;2022-11-15T13:15:35;19.40;54.00
71237;DHT22;58984;51.960;5.582;2022-11-15T13:18:26;19.40;53.90
71237;DHT22;58984;51.960;5.582;2022-11-15T13:20:53;19.40;54.00
71237;DHT22;58984;51.960;5.582;2022-11-15T13:23:18;19.50;53.40
71237;DHT22;58984;51.960;5.582;2022-11-15T13:30:52;19.40;53.40
71237;DHT22;58984;51.960;5.582;2022-11-15T13:33:37;19.50;53.40
71237;DHT22;58984;51.960;5.582;2022-11-15T13:36:25;19.40;53.50
71237;DHT22;58984;51.960;5.582;2022-11-15T13:38:57;19.40;53.40
71237;DHT22;58984;51.960;5.582;2022-11-15T13:41:28;19.40;53.20
71237;DHT22;58984;51.960;5.582;2022-11-15T13:43:55;19.50;53.40
71237;DHT22;58984;51.960;5.582;2022-11-15T13:46:29;19.40;53.50
71237;DHT22;58984;51.960;5.582;2022-11-15T13:49:08;19.40;53.40
71237;DHT22;58984;51.960;5.582;2022-11-15T13:51:48;19.40;53.50
71237;DHT22;58984;51.960;5.582;2022-11-15T13:54:34;19.30;53.50
71237;DHT22;58984;51.960;5.582;2022-11-15T13:57:21;19.30;53.30
71237;DHT22;58984;51.960;5.582;2022-11-15T13:59:54;19.20;53.30
71237;DHT22;58984;51.960;5.582;2022-11-15T14:02:32;19.30;53.10
71237;DHT22;58984;51.960;5.582;2022-11-15T14:07:39;19.20;52.70
71237;DHT22;58984;51.960;5.582;2022-11-15T14:10:34;19.20;52.70
71237;DHT22;58984;51.960;5.582;2022-11-15T14:13:00;19.10;52.80
71237;DHT22;58984;51.960;5.582;2022-11-15T14:15:35;19.10;52.70
71237;DHT22;58984;51.960;5.582;2022-11-15T14:24:21;19.10;52.50
71237;DHT22;58984;51.960;5.582;2022-11-15T14:26:57;19.00;52.80
71237;DHT22;58984;51.960;5.582;2022-11-15T14:29:55;19.00;52.40
71237;DHT22;58984;51.960;5.582;2022-11-15T14:32:53;19.00;52.40
71237;DHT22;58984;51.960;5.582;2022-11-15T14:35:23;18.90;52.50
71237;DHT22;58984;51.960;5.582;2022-11-15T15:06:55;18.60;52.70
71237;DHT22;58984;51.960;5.582;2022-11-15T15:09:21;18.70;52.70
71237;DHT22;58984;51.960;5.582;2022-11-15T15:11:47;18.60;52.70
71237;DHT22;58984;51.960;5.582;2022-11-15T15:14:14;18.60;52.80
71237;DHT22;58984;51.960;5.582;2022-11-15T15:16:39;18.60;52.80
71237;DHT22;58984;51.960;5.582;2022-11-15T15:24:15;18.50;52.70
71237;DHT22;58984;51.960;5.582;2022-11-15T15:26:41;18.60;52.80
71237;DHT22;58984;51.960;5.582;2022-11-15T15:29:09;18.60;52.80
71237;DHT22;58984;51.960;5.582;2022-11-15T15:31:34;18.50;52.80
71237;DHT22;58984;51.960;5.582;2022-11-15T15:34:00;18.50;52.70
71237;DHT22;58984;51.960;5.582;2022-11-15T15:36:26;18.50;52.70
71237;DHT22;58984;51.960;5.582;2022-11-15T15:38:52;18.50;52.70
71237;DHT22;58984;51.960;5.582;2022-11-15T15:41:18;18.50;52.70
71237;DHT22;58984;51.960;5.582;2022-11-15T15:43:44;18.40;52.60
71237;DHT22;58984;51.960;5.582;2022-11-15T15:46:18;18.40;52.50
71237;DHT22;58984;51.960;5.582;2022-11-15T15:48:44;18.40;52.50
71237;DHT22;58984;51.960;5.582;2022-11-15T15:51:10;18.40;53.00
71237;DHT22;58984;51.960;5.582;2022-11-15T15:53:36;18.40;52.50
71237;DHT22;58984;51.960;5.582;2022-11-15T15:56:02;18.40;52.40
71237;DHT22;58984;51.960;5.582;2022-11-15T15:58:27;18.40;52.40
71237;DHT22;58984;51.960;5.582;2022-11-15T16:00:53;18.30;52.30
71237;DHT22;58984;51.960;5.582;2022-11-15T16:03:19;18.40;52.30
71237;DHT22;58984;51.960;5.582;2022-11-15T16:05:44;18.30;52.20
71237;DHT22;58984;51.960;5.582;2022-11-15T16:08:24;18.30;52.20
71237;DHT22;58984;51.960;5.582;2022-11-15T16:10:49;18.20;52.30
71237;DHT22;58984;51.960;5.582;2022-11-15T16:13:15;18.30;52.30
71237;DHT22;58984;51.960;5.582;2022-11-15T16:15:42;18.20;52.20
71237;DHT22;58984;51.960;5.582;2022-11-15T16:18:17;18.30;52.40
71237;DHT22;58984;51.960;5.582;2022-11-15T16:20:48;18.20;52.90
71237;DHT22;58984;51.960;5.582;2022-11-15T16:23:22;18.20;52.20
71237;DHT22;58984;51.960;5.582;2022-11-15T16:25:54;18.20;52.90
71237;DHT22;58984;51.960;5.582;2022-11-15T16:28:23;18.10;52.20
71237;DHT22;58984;51.960;5.582;2022-11-15T16:30:58;18.20;52.20
71237;DHT22;58984;51.960;5.582;2022-11-15T16:33:25;18.20;52.30
71237;DHT22;58984;51.960;5.582;2022-11-15T16:35:50;18.20;52.40
71237;DHT22;58984;51.960;5.582;2022-11-15T16:38:17;18.20;52.40
71237;DHT22;58984;51.960;5.582;2022-11-15T16:40:46;18.20;52.50
71237;DHT22;58984;51.960;5.582;2022-11-15T16:43:11;18.10;52.40
71237;DHT22;58984;51.960;5.582;2022-11-15T16:45:37;18.20;52.50
71237;DHT22;58984;51.960;5.582;2022-11-15T16:48:03;18.20;52.50
71237;DHT22;58984;51.960;5.582;2022-11-15T16:50:32;18.10;52.50
71237;DHT22;58984;51.960;5.582;2022-11-15T16:52:59;18.10;52.60
71237;DHT22;58984;51.960;5.582;2022-11-15T16:55:28;18.10;52.60
71237;DHT22;58984;51.960;5.582;2022-11-15T16:57:57;18.10;52.70
71237;DHT22;58984;51.960;5.582;2022-11-15T17:00:23;18.10;52.70
71237;DHT22;58984;51.960;5.582;2022-11-15T17:02:50;18.10;52.70
71237;DHT22;58984;51.960;5.582;2022-11-15T17:05:19;18.10;52.70
71237;DHT22;58984;51.960;5.582;2022-11-15T17:07:47;18.10;52.90
71237;DHT22;58984;51.960;5.582;2022-11-15T17:10:19;18.10;52.90
71237;DHT22;58984;51.960;5.582;2022-11-15T17:12:45;18.10;53.00
71237;DHT22;58984;51.960;5.582;2022-11-15T17:15:12;18.10;53.70
71237;DHT22;58984;51.960;5.582;2022-11-15T17:17:38;18.10;53.20
71237;DHT22;58984;51.960;5.582;2022-11-15T17:20:14;18.10;53.40
71237;DHT22;58984;51.960;5.582;2022-11-15T17:22:40;18.10;53.50
71237;DHT22;58984;51.960;5.582;2022-11-15T17:25:06;18.10;53.50
71237;DHT22;58984;51.960;5.582;2022-11-15T17:27:32;18.10;53.60
71237;DHT22;58984;51.960;5.582;2022-11-15T17:29:57;18.10;53.60
71237;DHT22;58984;51.960;5.582;2022-11-15T17:32:23;18.10;53.60
71237;DHT22;58984;51.960;5.582;2022-11-15T17:34:49;18.10;53.70
71237;DHT22;58984;51.960;5.582;2022-11-15T17:37:14;18.10;53.80
71237;DHT22;58984;51.960;5.582;2022-11-15T17:39:40;18.10;53.80
71237;DHT22;58984;51.960;5.582;2022-11-15T17:42:06;18.10;53.90
71237;DHT22;58984;51.960;5.582;2022-11-15T17:44:32;18.10;54.00
71237;DHT22;58984;51.960;5.582;2022-11-15T17:46:58;18.10;54.00
71237;DHT22;58984;51.960;5.582;2022-11-15T17:49:23;18.10;54.00
71237;DHT22;58984;51.960;5.582;2022-11-15T17:51:49;18.10;54.30
71237;DHT22;58984;51.960;5.582;2022-11-15T17:54:14;18.10;54.30
71237;DHT22;58984;51.960;5.582;2022-11-15T17:56:40;18.10;54.30
71237;DHT22;58984;51.960;5.582;2022-11-15T17:59:06;18.10;54.30
71237;DHT22;58984;51.960;5.582;2022-11-15T18:01:34;18.10;54.60
71237;DHT22;58984;51.960;5.582;2022-11-15T18:04:02;18.00;54.60
71237;DHT22;58984;51.960;5.582;2022-11-15T18:06:31;18.00;54.60